Airfield :
LOGIN :

Register | Disclaimer

   EN    FR    IT 

 










Legend :    VFR   Marginal VFR   IFR   Intensive IFR   Very Intensive IFR
Visi :
Ceiling :
>= 8 km
>= 3000ft
5 to 8 km
1000 to 3000 ft
1500m to 5 km
500 to 1000 ft
800 to 1500m
200 to 500 ft
< 800m
< 200 ft
Symbols :   Thunderstorms  Fog  Heavy snow  Heavy precipitations  Wind > 20 kt
SIGMETs :     Misc.  Thunderstorms  Icing  Turbulence  Mountain Waves  Volcanic Ashes






- Airport Elevation : 220 ft
- IATA code : CWL


EGFF - Cardiff Rhoose

CURRENT METAR :
  • 280820Z AUTO 31006KT 9999 SCT045 01/M03 Q1010

EXPIRED METARs :
  • 280750Z AUTO 31008KT 9999 BKN046 02/M03 Q1010
  • 280720Z AUTO 32009KT 9999 NCD 01/M04 Q1010
  • 280650Z AUTO 32007KT 9999 NCD 01/M03 Q1010
  • 280620Z AUTO 32007KT 9999 NCD 01/M04 Q1009
  • 280550Z AUTO 31007KT 9999 NCD 01/M04 Q1009

TAF TAF EGFF
Valid from the 28 at 06:00 until the 29 at 06:00 UTC


280456Z 2806/2906 30010KT 9999 SCT045
PROB30
TEMPO 2817/2821 7000 RA BKN012
ATIS : +44 1446 729 319



MET'MAP, your aeronautical weather chart ! - Copyright ORBIFLY December 2007 - Disclaimer

ORBIFLY MET'MAP TEAM :

Programming & Development : Alexandra Zaïnal
Concept & original design : Baudouin d'Aumeries
Assistance for programming : Marc-Olivier Méhu
Technical & hardware support : Manuel Goepfert

Contact : metmap@orbifly.com




SOURCES & CREDITS :

   NOAA